sensor_id;sensor_type;location;lat;lon;timestamp;pressure;altitude;pressure_sealevel;temperature;humidity
34124;BME280;13153;52.316;21.166;2023-04-21T00:00:54;100800.97;;;15.62;41.54
34124;BME280;13153;52.316;21.166;2023-04-21T00:03:21;100803.53;;;15.56;41.66
34124;BME280;13153;52.316;21.166;2023-04-21T00:05:49;100802.59;;;15.51;42.47
34124;BME280;13153;52.316;21.166;2023-04-21T00:08:16;100798.97;;;15.46;42.09
34124;BME280;13153;52.316;21.166;2023-04-21T00:10:42;100797.19;;;15.45;42.12
34124;BME280;13153;52.316;21.166;2023-04-21T00:13:09;100805.13;;;15.42;42.13
34124;BME280;13153;52.316;21.166;2023-04-21T00:15:35;100802.41;;;15.39;42.14
34124;BME280;13153;52.316;21.166;2023-04-21T00:18:01;100808.59;;;15.38;42.03
34124;BME280;13153;52.316;21.166;2023-04-21T00:20:29;100808.53;;;15.33;42.26
34124;BME280;13153;52.316;21.166;2023-04-21T00:22:56;100805.00;;;15.33;42.77
34124;BME280;13153;52.316;21.166;2023-04-21T00:25:23;100796.09;;;15.29;42.60
34124;BME280;13153;52.316;21.166;2023-04-21T00:27:49;100796.94;;;15.25;42.84
34124;BME280;13153;52.316;21.166;2023-04-21T00:30:16;100796.84;;;15.20;43.09
34124;BME280;13153;52.316;21.166;2023-04-21T00:32:42;100798.56;;;15.15;42.54
34124;BME280;13153;52.316;21.166;2023-04-21T00:35:09;100792.31;;;15.12;43.10
34124;BME280;13153;52.316;21.166;2023-04-21T00:37:35;100797.53;;;15.07;43.22
34124;BME280;13153;52.316;21.166;2023-04-21T00:40:02;100802.78;;;15.03;43.33
34124;BME280;13153;52.316;21.166;2023-04-21T00:42:29;100796.59;;;15.01;43.25
34124;BME280;13153;52.316;21.166;2023-04-21T00:44:55;100800.97;;;14.99;43.31
34124;BME280;13153;52.316;21.166;2023-04-21T00:47:21;100792.94;;;14.93;43.39
34124;BME280;13153;52.316;21.166;2023-04-21T00:49:47;100801.72;;;14.90;43.48
34124;BME280;13153;52.316;21.166;2023-04-21T00:52:15;100791.03;;;14.84;43.28
34124;BME280;13153;52.316;21.166;2023-04-21T00:54:42;100794.50;;;14.80;43.90
34124;BME280;13153;52.316;21.166;2023-04-21T00:57:10;100789.13;;;14.75;43.56
34124;BME280;13153;52.316;21.166;2023-04-21T00:59:36;100797.00;;;14.71;44.02
34124;BME280;13153;52.316;21.166;2023-04-21T01:02:02;100791.66;;;14.68;43.96
34124;BME280;13153;52.316;21.166;2023-04-21T01:04:28;100782.75;;;14.64;44.06
34124;BME280;13153;52.316;21.166;2023-04-21T01:07:00;100800.41;;;14.64;43.75
34124;BME280;13153;52.316;21.166;2023-04-21T01:09:26;100795.84;;;14.55;43.92
34124;BME280;13153;52.316;21.166;2023-04-21T01:12:09;100788.72;;;14.51;44.40
34124;BME280;13153;52.316;21.166;2023-04-21T01:14:37;100794.81;;;14.47;44.50
34124;BME280;13153;52.316;21.166;2023-04-21T01:17:04;100793.91;;;14.43;44.37
34124;BME280;13153;52.316;21.166;2023-04-21T01:19:35;100796.47;;;14.40;44.64
34124;BME280;13153;52.316;21.166;2023-04-21T01:22:05;100794.59;;;14.35;44.95
34124;BME280;13153;52.316;21.166;2023-04-21T01:27:01;100792.75;;;14.31;44.52
34124;BME280;13153;52.316;21.166;2023-04-21T01:29:32;100794.44;;;14.26;44.89
34124;BME280;13153;52.316;21.166;2023-04-21T01:32:17;100784.72;;;14.25;44.97
34124;BME280;13153;52.316;21.166;2023-04-21T01:34:44;100789.06;;;14.21;45.10
34124;BME280;13153;52.316;21.166;2023-04-21T01:37:19;100786.34;;;14.18;44.83
34124;BME280;13153;52.316;21.166;2023-04-21T01:39:49;100790.66;;;14.13;44.81
34124;BME280;13153;52.316;21.166;2023-04-21T01:42:18;100779.09;;;14.08;45.20
34124;BME280;13153;52.316;21.166;2023-04-21T01:44:44;100779.97;;;14.07;45.03
34124;BME280;13153;52.316;21.166;2023-04-21T01:47:12;100782.50;;;14.01;45.26
34124;BME280;13153;52.316;21.166;2023-04-21T01:49:38;100793.13;;;14.04;45.07
34124;BME280;13153;52.316;21.166;2023-04-21T01:52:04;100795.72;;;14.01;45.53
34124;BME280;13153;52.316;21.166;2023-04-21T01:54:29;100787.75;;;13.99;45.63
34124;BME280;13153;52.316;21.166;2023-04-21T01:56:55;100784.09;;;13.93;45.13
34124;BME280;13153;52.316;21.166;2023-04-21T01:59:22;100786.66;;;13.88;45.67
34124;BME280;13153;52.316;21.166;2023-04-21T02:01:48;100798.09;;;13.85;45.31
34124;BME280;13153;52.316;21.166;2023-04-21T02:04:14;100786.56;;;13.82;45.50
34124;BME280;13153;52.316;21.166;2023-04-21T02:06:40;100782.09;;;13.79;45.91
34124;BME280;13153;52.316;21.166;2023-04-21T02:09:06;100783.94;;;13.83;45.69
34124;BME280;13153;52.316;21.166;2023-04-21T02:11:32;100776.81;;;13.79;45.78
34124;BME280;13153;52.316;21.166;2023-04-21T02:13:57;100777.69;;;13.78;45.51
34124;BME280;13153;52.316;21.166;2023-04-21T02:16:23;100782.91;;;13.75;45.44
34124;BME280;13153;52.316;21.166;2023-04-21T02:18:52;100786.38;;;13.73;45.83
34124;BME280;13153;52.316;21.166;2023-04-21T02:21:19;100787.13;;;13.66;46.10
34124;BME280;13153;52.316;21.166;2023-04-21T02:23:46;100790.53;;;13.60;46.33
34124;BME280;13153;52.316;21.166;2023-04-21T02:26:11;100796.59;;;13.56;46.03
34124;BME280;13153;52.316;21.166;2023-04-21T02:28:37;100781.50;;;13.50;46.52
34124;BME280;13153;52.316;21.166;2023-04-21T02:31:03;100785.88;;;13.48;46.26
34124;BME280;13153;52.316;21.166;2023-04-21T02:33:29;100776.16;;;13.47;46.50
34124;BME280;13153;52.316;21.166;2023-04-21T02:35:55;100778.72;;;13.44;46.20
34124;BME280;13153;52.316;21.166;2023-04-21T02:38:20;100778.66;;;13.41;46.51
34124;BME280;13153;52.316;21.166;2023-04-21T02:40:46;100779.53;;;13.40;46.51
34124;BME280;13153;52.316;21.166;2023-04-21T02:43:16;100775.06;;;13.38;46.34
34124;BME280;13153;52.316;21.166;2023-04-21T02:45:42;100777.63;;;13.35;46.29
34124;BME280;13153;52.316;21.166;2023-04-21T02:48:08;100775.00;;;13.35;46.39
34124;BME280;13153;52.316;21.166;2023-04-21T02:50:34;100773.19;;;13.32;46.56
34124;BME280;13153;52.316;21.166;2023-04-21T02:53:00;100770.50;;;13.31;46.43
34124;BME280;13153;52.316;21.166;2023-04-21T02:55:26;100768.72;;;13.30;46.91
34124;BME280;13153;52.316;21.166;2023-04-21T02:57:51;100767.81;;;13.28;46.69
34124;BME280;13153;52.316;21.166;2023-04-21T03:00:17;100775.75;;;13.28;46.94
34124;BME280;13153;52.316;21.166;2023-04-21T03:02:43;100767.75;;;13.25;46.76
34124;BME280;13153;52.316;21.166;2023-04-21T03:05:09;100773.84;;;13.20;46.89
34124;BME280;13153;52.316;21.166;2023-04-21T03:07:35;100768.38;;;13.14;46.76
34124;BME280;13153;52.316;21.166;2023-04-21T03:10:01;100775.41;;;13.14;46.98
34124;BME280;13153;52.316;21.166;2023-04-21T03:12:27;100763.84;;;13.09;46.87
34124;BME280;13153;52.316;21.166;2023-04-21T03:14:53;100770.88;;;13.08;47.33
34124;BME280;13153;52.316;21.166;2023-04-21T03:17:18;100770.84;;;13.07;47.04
34124;BME280;13153;52.316;21.166;2023-04-21T03:19:44;100764.66;;;13.06;46.87
34124;BME280;13153;52.316;21.166;2023-04-21T03:22:10;100770.81;;;13.05;47.13
34124;BME280;13153;52.316;21.166;2023-04-21T03:24:36;100764.59;;;13.03;47.46
34124;BME280;13153;52.316;21.166;2023-04-21T03:27:02;100776.81;;;12.98;47.00
34124;BME280;13153;52.316;21.166;2023-04-21T03:29:27;100775.81;;;12.93;47.41
34124;BME280;13153;52.316;21.166;2023-04-21T03:31:53;100768.72;;;12.90;47.41
34124;BME280;13153;52.316;21.166;2023-04-21T03:34:19;100771.31;;;12.89;47.47
34124;BME280;13153;52.316;21.166;2023-04-21T03:36:44;100769.56;;;12.89;47.53
34124;BME280;13153;52.316;21.166;2023-04-21T03:39:10;100781.06;;;12.92;47.15
34124;BME280;13153;52.316;21.166;2023-04-21T03:41:36;100785.63;;;12.99;47.53
34124;BME280;13153;52.316;21.166;2023-04-21T03:44:02;100784.94;;;13.07;46.91
34124;BME280;13153;52.316;21.166;2023-04-21T03:46:27;100787.91;;;13.19;46.60
34124;BME280;13153;52.316;21.166;2023-04-21T03:48:53;100781.06;;;13.31;46.32
34124;BME280;13153;52.316;21.166;2023-04-21T03:51:19;100789.34;;;13.46;45.97
34124;BME280;13153;52.316;21.166;2023-04-21T03:53:44;100794.66;;;13.47;46.12
34124;BME280;13153;52.316;21.166;2023-04-21T03:56:10;100794.03;;;13.59;45.63
34124;BME280;13153;52.316;21.166;2023-04-21T03:58:36;100790.84;;;13.75;45.44
34124;BME280;13153;52.316;21.166;2023-04-21T04:01:05;100793.66;;;13.84;44.65
34124;BME280;13153;52.316;21.166;2023-04-21T04:03:32;100795.75;;;14.02;44.55
34124;BME280;13153;52.316;21.166;2023-04-21T04:05:57;100796.06;;;14.19;44.10
34124;BME280;13153;52.316;21.166;2023-04-21T04:08:23;100794.66;;;14.38;43.44
34124;BME280;13153;52.316;21.166;2023-04-21T04:10:49;100794.13;;;14.59;43.08
34124;BME280;13153;52.316;21.166;2023-04-21T04:13:15;100800.63;;;14.77;42.45
34124;BME280;13153;52.316;21.166;2023-04-21T04:15:41;100798.31;;;14.97;42.32
34124;BME280;13153;52.316;21.166;2023-04-21T04:18:06;100800.28;;;15.13;41.69
34124;BME280;13153;52.316;21.166;2023-04-21T04:20:32;100800.72;;;15.44;41.10
34124;BME280;13153;52.316;21.166;2023-04-21T04:22:58;100806.28;;;15.59;40.77
34124;BME280;13153;52.316;21.166;2023-04-21T04:25:24;100804.78;;;15.85;40.46
34124;BME280;13153;52.316;21.166;2023-04-21T04:27:49;100804.19;;;16.08;39.73
34124;BME280;13153;52.316;21.166;2023-04-21T04:30:16;100815.91;;;16.33;39.19
34124;BME280;13153;52.316;21.166;2023-04-21T04:32:42;100816.19;;;16.62;38.75
34124;BME280;13153;52.316;21.166;2023-04-21T04:35:09;100811.16;;;16.92;37.99
34124;BME280;13153;52.316;21.166;2023-04-21T04:37:38;100808.69;;;17.21;37.17
34124;BME280;13153;52.316;21.166;2023-04-21T04:40:06;100812.31;;;17.40;36.90
34124;BME280;13153;52.316;21.166;2023-04-21T04:42:34;100814.16;;;17.50;36.44
34124;BME280;13153;52.316;21.166;2023-04-21T04:45:01;100819.63;;;17.76;36.16
34124;BME280;13153;52.316;21.166;2023-04-21T04:47:27;100817.06;;;18.05;35.68
34124;BME280;13153;52.316;21.166;2023-04-21T04:49:54;100812.69;;;18.25;36.03
34124;BME280;13153;52.316;21.166;2023-04-21T04:52:20;100824.25;;;18.45;34.63
34124;BME280;13153;52.316;21.166;2023-04-21T04:54:45;100820.69;;;18.40;35.25
34124;BME280;13153;52.316;21.166;2023-04-21T04:57:11;100826.06;;;18.65;35.81
34124;BME280;13153;52.316;21.166;2023-04-21T04:59:37;100820.72;;;18.43;35.50
34124;BME280;13153;52.316;21.166;2023-04-21T05:02:03;100823.41;;;18.75;34.76
34124;BME280;13153;52.316;21.166;2023-04-21T05:04:29;100816.31;;;18.88;33.79
34124;BME280;13153;52.316;21.166;2023-04-21T05:06:54;100816.31;;;18.96;33.31
34124;BME280;13153;52.316;21.166;2023-04-21T05:09:20;100822.44;;;19.37;33.39
34124;BME280;13153;52.316;21.166;2023-04-21T05:11:46;100814.31;;;19.74;32.02
34124;BME280;13153;52.316;21.166;2023-04-21T05:14:12;100814.41;;;19.62;31.78
34124;BME280;13153;52.316;21.166;2023-04-21T05:16:37;100821.19;;;20.22;31.74
34124;BME280;13153;52.316;21.166;2023-04-21T05:19:03;100810.72;;;21.09;30.85
34124;BME280;13153;52.316;21.166;2023-04-21T05:21:29;100822.94;;;21.38;29.86
34124;BME280;13153;52.316;21.166;2023-04-21T05:23:57;100820.63;;;21.84;29.28
34124;BME280;13153;52.316;21.166;2023-04-21T05:26:28;100827.91;;;22.40;27.74
34124;BME280;13153;52.316;21.166;2023-04-21T05:28:57;100819.09;;;22.89;27.47
34124;BME280;13153;52.316;21.166;2023-04-21T05:31:24;100817.44;;;23.30;26.13
34124;BME280;13153;52.316;21.166;2023-04-21T05:33:51;100823.41;;;23.90;25.78
34124;BME280;13153;52.316;21.166;2023-04-21T05:36:16;100817.47;;;23.75;25.96
34124;BME280;13153;52.316;21.166;2023-04-21T05:38:44;100820.16;;;24.90;24.63
34124;BME280;13153;52.316;21.166;2023-04-21T05:41:10;100816.53;;;26.49;22.94
34124;BME280;13153;52.316;21.166;2023-04-21T05:43:36;100819.13;;;27.32;21.97
34124;BME280;13153;52.316;21.166;2023-04-21T05:46:07;100820.81;;;28.07;21.03
34124;BME280;13153;52.316;21.166;2023-04-21T05:48:33;100826.00;;;28.37;20.27
34124;BME280;13153;52.316;21.166;2023-04-21T05:51:11;100820.13;;;28.91;20.50
34124;BME280;13153;52.316;21.166;2023-04-21T05:53:38;100828.53;;;29.27;19.57
34124;BME280;13153;52.316;21.166;2023-04-21T05:56:05;100826.00;;;30.04;19.33
34124;BME280;13153;52.316;21.166;2023-04-21T05:58:33;100832.72;;;30.51;18.47
34124;BME280;13153;52.316;21.166;2023-04-21T06:00:58;100828.91;;;30.55;18.44
34124;BME280;13153;52.316;21.166;2023-04-21T06:03:24;100832.94;;;30.47;18.03
34124;BME280;13153;52.316;21.166;2023-04-21T06:05:59;100829.25;;;31.20;17.87
34124;BME280;13153;52.316;21.166;2023-04-21T06:08:25;100829.41;;;31.34;17.66
34124;BME280;13153;52.316;21.166;2023-04-21T06:10:51;100827.34;;;31.22;17.50
34124;BME280;13153;52.316;21.166;2023-04-21T06:13:17;100824.47;;;31.42;17.90
34124;BME280;13153;52.316;21.166;2023-04-21T06:15:43;100826.47;;;31.22;17.26
34124;BME280;13153;52.316;21.166;2023-04-21T06:18:09;100827.00;;;31.11;18.23
34124;BME280;13153;52.316;21.166;2023-04-21T06:20:35;100820.63;;;31.29;17.65
34124;BME280;13153;52.316;21.166;2023-04-21T06:23:00;100824.28;;;31.96;16.80
34124;BME280;13153;52.316;21.166;2023-04-21T06:25:26;100817.84;;;31.81;17.49
34124;BME280;13153;52.316;21.166;2023-04-21T06:27:52;100817.50;;;31.87;16.74
34124;BME280;13153;52.316;21.166;2023-04-21T06:30:18;100813.97;;;31.35;17.06
34124;BME280;13153;52.316;21.166;2023-04-21T06:32:43;100812.28;;;32.00;17.08
34124;BME280;13153;52.316;21.166;2023-04-21T06:35:10;100814.09;;;32.79;16.77
34124;BME280;13153;52.316;21.166;2023-04-21T06:37:36;100817.63;;;33.41;16.31
34124;BME280;13153;52.316;21.166;2023-04-21T06:40:03;100813.88;;;33.87;16.25
34124;BME280;13153;52.316;21.166;2023-04-21T06:42:29;100818.81;;;34.08;15.68
34124;BME280;13153;52.316;21.166;2023-04-21T06:44:54;100819.91;;;34.06;16.54
34124;BME280;13153;52.316;21.166;2023-04-21T06:47:21;100820.59;;;33.95;15.52
34124;BME280;13153;52.316;21.166;2023-04-21T06:49:47;100809.28;;;32.99;15.77
34124;BME280;13153;52.316;21.166;2023-04-21T06:52:12;100811.94;;;32.22;16.63
34124;BME280;13153;52.316;21.166;2023-04-21T06:54:39;100811.25;;;32.49;17.08
34124;BME280;13153;52.316;21.166;2023-04-21T06:57:04;100811.25;;;32.49;16.52
34124;BME280;13153;52.316;21.166;2023-04-21T06:59:31;100808.66;;;32.94;16.45
34124;BME280;13153;52.316;21.166;2023-04-21T07:01:59;100808.50;;;33.27;16.30
34124;BME280;13153;52.316;21.166;2023-04-21T07:04:25;100813.31;;;33.37;15.93
34124;BME280;13153;52.316;21.166;2023-04-21T07:06:54;100808.16;;;33.17;16.99
34124;BME280;13153;52.316;21.166;2023-04-21T07:09:21;100817.59;;;33.11;16.42
34124;BME280;13153;52.316;21.166;2023-04-21T07:11:47;100811.34;;;32.48;16.52
34124;BME280;13153;52.316;21.166;2023-04-21T07:14:12;100816.78;;;32.16;16.57
34124;BME280;13153;52.316;21.166;2023-04-21T07:16:38;100809.50;;;31.68;16.45
34124;BME280;13153;52.316;21.166;2023-04-21T07:19:04;100812.28;;;31.49;17.06
34124;BME280;13153;52.316;21.166;2023-04-21T07:21:30;100804.19;;;32.31;17.10
34124;BME280;13153;52.316;21.166;2023-04-21T07:23:56;100815.47;;;32.39;17.19
34124;BME280;13153;52.316;21.166;2023-04-21T07:26:23;100802.69;;;31.77;16.31
34124;BME280;13153;52.316;21.166;2023-04-21T07:28:49;100803.97;;;31.35;16.79
34124;BME280;13153;52.316;21.166;2023-04-21T07:31:17;100811.75;;;31.43;17.60
34124;BME280;13153;52.316;21.166;2023-04-21T07:33:42;100800.66;;;31.63;18.18
34124;BME280;13153;52.316;21.166;2023-04-21T07:36:08;100807.91;;;31.47;17.31
34124;BME280;13153;52.316;21.166;2023-04-21T07:38:35;100809.53;;;30.44;18.00
34124;BME280;13153;52.316;21.166;2023-04-21T07:41:03;100807.50;;;29.73;18.16
34124;BME280;13153;52.316;21.166;2023-04-21T07:43:29;100811.63;;;29.42;18.66
34124;BME280;13153;52.316;21.166;2023-04-21T07:45:57;100800.06;;;29.17;19.24
34124;BME280;13153;52.316;21.166;2023-04-21T07:48:22;100802.50;;;28.37;19.94
34124;BME280;13153;52.316;21.166;2023-04-21T07:50:48;100800.41;;;27.99;20.17
34124;BME280;13153;52.316;21.166;2023-04-21T07:53:15;100800.19;;;27.81;20.50
34124;BME280;13153;52.316;21.166;2023-04-21T07:55:40;100795.53;;;27.61;20.44
34124;BME280;13153;52.316;21.166;2023-04-21T07:58:06;100783.91;;;27.59;21.33
34124;BME280;13153;52.316;21.166;2023-04-21T08:00:33;100788.25;;;27.39;21.52
34124;BME280;13153;52.316;21.166;2023-04-21T08:02:59;100783.63;;;26.64;21.04
34124;BME280;13153;52.316;21.166;2023-04-21T08:05:25;100784.63;;;26.34;21.88
34124;BME280;13153;52.316;21.166;2023-04-21T08:07:51;100781.34;;;25.95;21.66
34124;BME280;13153;52.316;21.166;2023-04-21T08:10:16;100784.66;;;25.75;21.60
34124;BME280;13153;52.316;21.166;2023-04-21T08:12:42;100772.03;;;24.78;20.70
34124;BME280;13153;52.316;21.166;2023-04-21T08:15:08;100774.97;;;24.32;22.68
34124;BME280;13153;52.316;21.166;2023-04-21T08:17:37;100779.50;;;24.30;22.31
34124;BME280;13153;52.316;21.166;2023-04-21T08:20:03;100772.88;;;24.45;22.55
34124;BME280;13153;52.316;21.166;2023-04-21T08:22:29;100782.06;;;23.96;22.62
34124;BME280;13153;52.316;21.166;2023-04-21T08:24:56;100775.25;;;23.35;22.72
34124;BME280;13153;52.316;21.166;2023-04-21T08:27:22;100771.44;;;23.47;22.73
34124;BME280;13153;52.316;21.166;2023-04-21T08:29:49;100771.41;;;23.03;22.37
34124;BME280;13153;52.316;21.166;2023-04-21T08:32:15;100782.03;;;22.56;22.50
34124;BME280;13153;52.316;21.166;2023-04-21T08:34:46;100767.88;;;22.49;22.30
34124;BME280;13153;52.316;21.166;2023-04-21T08:37:13;100773.25;;;22.48;23.36
34124;BME280;13153;52.316;21.166;2023-04-21T08:39:39;100769.94;;;22.86;22.91
34124;BME280;13153;52.316;21.166;2023-04-21T08:42:06;100764.50;;;22.36;22.95
34124;BME280;13153;52.316;21.166;2023-04-21T08:44:32;100767.16;;;22.38;23.29
34124;BME280;13153;52.316;21.166;2023-04-21T08:47:00;100773.66;;;22.76;23.61
34124;BME280;13153;52.316;21.166;2023-04-21T08:49:29;100768.00;;;22.42;21.89
34124;BME280;13153;52.316;21.166;2023-04-21T08:51:55;100766.88;;;21.95;22.06
34124;BME280;13153;52.316;21.166;2023-04-21T08:54:21;100763.72;;;21.64;22.68
34124;BME280;13153;52.316;21.166;2023-04-21T08:56:47;100755.94;;;22.10;22.70
34124;BME280;13153;52.316;21.166;2023-04-21T08:59:14;100763.53;;;21.78;23.41
34124;BME280;13153;52.316;21.166;2023-04-21T09:02:10;100758.53;;;21.50;22.47
34124;BME280;13153;52.316;21.166;2023-04-21T09:04:47;100754.97;;;21.48;22.62
34124;BME280;13153;52.316;21.166;2023-04-21T09:07:35;100753.31;;;22.07;21.94
34124;BME280;13153;52.316;21.166;2023-04-21T09:10:03;100750.34;;;22.27;23.20
34124;BME280;13153;52.316;21.166;2023-04-21T09:12:29;100742.00;;;22.45;22.54
34124;BME280;13153;52.316;21.166;2023-04-21T09:14:56;100737.06;;;22.18;21.98
34124;BME280;13153;52.316;21.166;2023-04-21T09:17:30;100736.72;;;22.40;22.46
34124;BME280;13153;52.316;21.166;2023-04-21T09:20:14;100746.69;;;21.69;22.01
34124;BME280;13153;52.316;21.166;2023-04-21T09:22:41;100740.38;;;20.98;22.76
34124;BME280;13153;52.316;21.166;2023-04-21T09:25:07;100736.00;;;20.88;22.60
34124;BME280;13153;52.316;21.166;2023-04-21T09:27:36;100735.44;;;21.40;23.08
34124;BME280;13153;52.316;21.166;2023-04-21T09:30:04;100728.22;;;21.48;22.03
34124;BME280;13153;52.316;21.166;2023-04-21T09:32:39;100738.84;;;21.54;22.46
34124;BME280;13153;52.316;21.166;2023-04-21T09:35:09;100733.25;;;21.72;22.62
34124;BME280;13153;52.316;21.166;2023-04-21T09:37:38;100738.59;;;21.74;22.64
34124;BME280;13153;52.316;21.166;2023-04-21T09:40:05;100730.59;;;21.71;22.40
34124;BME280;13153;52.316;21.166;2023-04-21T09:42:32;100727.22;;;21.55;23.11
34124;BME280;13153;52.316;21.166;2023-04-21T09:44:58;100723.38;;;21.76;23.34
34124;BME280;13153;52.316;21.166;2023-04-21T09:47:32;100727.91;;;21.72;23.05
34124;BME280;13153;52.316;21.166;2023-04-21T09:50:01;100728.31;;;22.06;23.16
34124;BME280;13153;52.316;21.166;2023-04-21T09:52:29;100720.22;;;22.10;23.00
34124;BME280;13153;52.316;21.166;2023-04-21T09:55:00;100710.38;;;22.10;22.92
34124;BME280;13153;52.316;21.166;2023-04-21T09:57:31;100711.59;;;21.88;22.45
34124;BME280;13153;52.316;21.166;2023-04-21T10:00:04;100717.38;;;21.59;22.91
34124;BME280;13153;52.316;21.166;2023-04-21T10:02:32;100714.31;;;21.86;22.51
34124;BME280;13153;52.316;21.166;2023-04-21T10:05:00;100715.91;;;21.35;22.46
34124;BME280;13153;52.316;21.166;2023-04-21T10:07:28;100707.91;;;21.33;22.19
34124;BME280;13153;52.316;21.166;2023-04-21T10:09:56;100702.53;;;21.33;22.53
34124;BME280;13153;52.316;21.166;2023-04-21T10:12:24;100697.56;;;21.70;22.42
34124;BME280;13153;52.316;21.166;2023-04-21T10:14:52;100694.41;;;22.01;21.75
34124;BME280;13153;52.316;21.166;2023-04-21T10:17:22;100690.47;;;22.26;21.72
34124;BME280;13153;52.316;21.166;2023-04-21T10:19:57;100687.72;;;21.72;21.16
34124;BME280;13153;52.316;21.166;2023-04-21T10:22:33;100689.69;;;21.58;21.46
34124;BME280;13153;52.316;21.166;2023-04-21T10:25:03;100692.59;;;21.41;21.78
34124;BME280;13153;52.316;21.166;2023-04-21T10:27:40;100689.22;;;21.27;21.74
34124;BME280;13153;52.316;21.166;2023-04-21T10:30:21;100682.59;;;21.54;22.20
34124;BME280;13153;52.316;21.166;2023-04-21T10:33:01;100685.22;;;21.60;22.29
34124;BME280;13153;52.316;21.166;2023-04-21T10:36:00;100677.03;;;21.69;21.80
34124;BME280;13153;52.316;21.166;2023-04-21T10:38:40;100675.63;;;22.04;21.69
34124;BME280;13153;52.316;21.166;2023-04-21T10:41:26;100662.97;;;22.15;21.81
34124;BME280;13153;52.316;21.166;2023-04-21T10:43:52;100661.03;;;22.23;20.88
34124;BME280;13153;52.316;21.166;2023-04-21T10:46:53;100662.78;;;22.26;22.07
34124;BME280;13153;52.316;21.166;2023-04-21T10:49:25;100656.53;;;21.67;21.35
34124;BME280;13153;52.316;21.166;2023-04-21T10:57:10;100667.09;;;21.78;22.50
34124;BME280;13153;52.316;21.166;2023-04-21T10:59:37;100663.47;;;21.82;21.42
34124;BME280;13153;52.316;21.166;2023-04-21T11:02:10;100655.34;;;21.88;21.72
34124;BME280;13153;52.316;21.166;2023-04-21T11:04:36;100644.13;;;21.61;21.34
34124;BME280;13153;52.316;21.166;2023-04-21T11:07:14;100654.25;;;21.38;22.18
34124;BME280;13153;52.316;21.166;2023-04-21T11:09:42;100643.66;;;21.32;21.86
34124;BME280;13153;52.316;21.166;2023-04-21T11:12:12;100644.41;;;21.40;21.82
34124;BME280;13153;52.316;21.166;2023-04-21T11:14:43;100639.63;;;21.63;22.25
34124;BME280;13153;52.316;21.166;2023-04-21T11:17:14;100633.47;;;21.57;21.42
34124;BME280;13153;52.316;21.166;2023-04-21T11:19:44;100623.25;;;21.25;22.28
34124;BME280;13153;52.316;21.166;2023-04-21T11:22:10;100618.38;;;21.53;21.98
34124;BME280;13153;52.316;21.166;2023-04-21T11:24:36;100618.38;;;21.53;21.39
34124;BME280;13153;52.316;21.166;2023-04-21T11:27:02;100612.16;;;21.51;22.19
34124;BME280;13153;52.316;21.166;2023-04-21T11:29:28;100608.50;;;21.56;21.55
34124;BME280;13153;52.316;21.166;2023-04-21T11:31:54;100606.44;;;21.73;21.76
34124;BME280;13153;52.316;21.166;2023-04-21T11:34:21;100605.31;;;21.88;22.47
34124;BME280;13153;52.316;21.166;2023-04-21T11:36:48;100602.47;;;21.97;21.53
34124;BME280;13153;52.316;21.166;2023-04-21T11:39:16;100603.31;;;21.99;20.53
34124;BME280;13153;52.316;21.166;2023-04-21T11:41:47;100590.56;;;22.17;21.34
34124;BME280;13153;52.316;21.166;2023-04-21T11:44:30;100606.16;;;21.92;20.93
34124;BME280;13153;52.316;21.166;2023-04-21T11:46:56;100599.88;;;21.36;21.12
34124;BME280;13153;52.316;21.166;2023-04-21T11:49:25;100604.03;;;21.57;21.67
34124;BME280;13153;52.316;21.166;2023-04-21T11:51:54;100603.06;;;21.61;21.21
34124;BME280;13153;52.316;21.166;2023-04-21T11:54:21;100599.59;;;21.54;20.92
34124;BME280;13153;52.316;21.166;2023-04-21T11:56:49;100591.56;;;21.54;21.57
34124;BME280;13153;52.316;21.166;2023-04-21T11:59:18;100589.44;;;21.76;21.60
34124;BME280;13153;52.316;21.166;2023-04-21T12:01:51;100585.53;;;21.95;21.21
34124;BME280;13153;52.316;21.166;2023-04-21T12:04:23;100583.09;;;21.82;21.55
34124;BME280;13153;52.316;21.166;2023-04-21T12:07:01;100574.34;;;21.70;22.63
34124;BME280;13153;52.316;21.166;2023-04-21T12:09:28;100579.50;;;21.83;22.66
34124;BME280;13153;52.316;21.166;2023-04-21T12:11:56;100584.53;;;22.01;22.18
34124;BME280;13153;52.316;21.166;2023-04-21T12:14:24;100573.50;;;22.21;21.49
34124;BME280;13153;52.316;21.166;2023-04-21T12:16:56;100577.34;;;22.06;22.46
34124;BME280;13153;52.316;21.166;2023-04-21T12:19:41;100566.44;;;22.17;22.39
34124;BME280;13153;52.316;21.166;2023-04-21T12:22:14;100553.94;;;22.16;21.78
34124;BME280;13153;52.316;21.166;2023-04-21T12:24:41;100556.84;;;22.03;22.08
34124;BME280;13153;52.316;21.166;2023-04-21T12:27:07;100570.56;;;21.84;21.44
34124;BME280;13153;52.316;21.166;2023-04-21T12:29:33;100567.41;;;21.57;22.77
34124;BME280;13153;52.316;21.166;2023-04-21T12:32:00;100573.88;;;21.44;23.03
34124;BME280;13153;52.316;21.166;2023-04-21T12:34:26;100554.53;;;21.81;21.46
34124;BME280;13153;52.316;21.166;2023-04-21T12:36:52;100554.25;;;21.96;21.75
34124;BME280;13153;52.316;21.166;2023-04-21T12:39:17;100554.19;;;21.99;22.37
34124;BME280;13153;52.316;21.166;2023-04-21T12:41:44;100547.03;;;22.01;22.91
34124;BME280;13153;52.316;21.166;2023-04-21T12:44:12;100544.06;;;22.19;22.54
34124;BME280;13153;52.316;21.166;2023-04-21T12:46:38;100542.75;;;21.92;22.28
34124;BME280;13153;52.316;21.166;2023-04-21T12:49:05;100540.34;;;21.75;21.80
34124;BME280;13153;52.316;21.166;2023-04-21T12:51:32;100538.69;;;21.67;22.58